Time;durP1;ratioP1;P1;durP2;ratioP2;P2;SDS_P1;SDS_P2;PMS_P1;PMS_P2;Temp;Humidity;BMP_temperature;BMP_pressure;BME280_temperature;BME280_humidity;BME280_pressure;Samples;Min_cycle;Max_cycle;Signal;HPM_P1;HPM_P2
2023/07/18 00:01:08;;;;;;;;;;;;;;;15.66;69.88;102037.53;5033596;28;1409;-79
2023/07/18 00:03:33;;;;;;;;;;;;;;;15.66;69.64;102042.78;5051191;28;1377;-79
2023/07/18 00:05:58;;;;;;;;;;;;;;;15.63;69.68;102048.25;5046168;28;1361;-79
2023/07/18 00:08:23;;;;;;;;;;;;;;;15.62;70.01;102051.78;5044055;28;1883;-80
2023/07/18 00:10:49;;;;;;;;;;;;;;;15.59;69.86;102042.41;5052024;28;1144;-81
2023/07/18 00:13:14;;;;;;;;;;;;;;;15.55;70.08;102035.78;5045696;28;1574;-79
2023/07/18 00:15:39;;;;;;;;;;;;;;;15.51;70.36;102028.31;5056474;28;1137;-79
2023/07/18 00:18:06;;;;;;;;;;;;;;;15.43;70.27;102031.59;5047904;28;1288;-80
2023/07/18 00:20:32;;;;;;;;;;;;;;;15.36;70.82;102041.69;5052774;28;1002;-79
2023/07/18 00:22:57;;;;;;;;;;;;;;;15.34;70.86;102042.78;5052473;28;1367;-79
2023/07/18 00:25:22;;;;;;;;;;;;;;;15.34;70.96;102042.78;5049758;28;1083;-79
2023/07/18 00:27:53;;;;;;;;;;;;;;;15.34;70.74;102038.38;5050614;28;1898;-79
2023/07/18 00:30:20;;;;;;;;;;;;;;;15.33;70.92;102030.69;5029431;28;1428;-80
2023/07/18 00:32:45;;;;;;;;;;;;;;;15.33;70.84;102036.72;5036168;28;1268;-80
2023/07/18 00:35:11;;;;;;;;;;;;;;;15.32;70.67;102035.09;5026516;28;1104;-80
2023/07/18 00:37:38;;;;;;;;;;;;;;;15.29;70.89;102030.09;5046508;28;1403;-80
2023/07/18 00:40:05;;;;;;;;;;;;;;;15.27;70.77;102032.00;5046281;28;1058;-80
2023/07/18 00:42:30;;;;;;;;;;;;;;;15.23;70.95;102037.63;5042093;28;1316;-79
2023/07/18 00:44:56;;;;;;;;;;;;;;;15.21;71.19;102032.53;5045485;28;1232;-80
2023/07/18 00:47:24;;;;;;;;;;;;;;;15.19;70.98;102038.81;5047336;28;1107;-80
2023/07/18 00:49:50;;;;;;;;;;;;;;;15.18;71.01;102043.22;5043009;28;1013;-79
2023/07/18 00:52:15;;;;;;;;;;;;;;;15.17;71.40;102041.56;5045031;28;1133;-80
2023/07/18 00:54:42;;;;;;;;;;;;;;;15.14;71.01;102040.03;5038169;28;1527;-79
2023/07/18 00:57:08;;;;;;;;;;;;;;;15.13;71.02;102032.28;5045387;28;1275;-79
2023/07/18 00:59:34;;;;;;;;;;;;;;;15.13;70.86;102045.38;5046021;28;1310;-80
2023/07/18 01:02:02;;;;;;;;;;;;;;;15.09;70.88;102038.75;5041325;28;1466;-80
2023/07/18 01:04:27;;;;;;;;;;;;;;;15.06;71.20;102036.38;5045462;28;1236;-80
2023/07/18 01:06:53;;;;;;;;;;;;;;;15.04;71.24;102030.44;5040157;28;1341;-80
2023/07/18 01:09:18;;;;;;;;;;;;;;;14.99;71.02;102033.44;5043993;28;1886;-79
2023/07/18 01:11:43;;;;;;;;;;;;;;;14.92;71.43;102032.28;5047915;28;1413;-79
2023/07/18 01:14:09;;;;;;;;;;;;;;;14.87;71.49;102030.03;5042688;28;1273;-80
2023/07/18 01:16:35;;;;;;;;;;;;;;;14.84;71.80;102029.44;5047321;28;1301;-79
2023/07/18 01:19:00;;;;;;;;;;;;;;;14.82;71.81;102032.19;5042086;28;1223;-79
2023/07/18 01:21:25;;;;;;;;;;;;;;;14.84;71.82;102035.47;5058548;28;1280;-79
2023/07/18 01:23:50;;;;;;;;;;;;;;;14.78;71.97;102030.75;5044250;28;1268;-80
2023/07/18 01:26:15;;;;;;;;;;;;;;;14.75;72.21;102031.03;5043885;28;1272;-79
2023/07/18 01:28:41;;;;;;;;;;;;;;;14.74;72.69;102023.31;5047403;28;1938;-79
2023/07/18 01:31:06;;;;;;;;;;;;;;;14.73;72.49;102019.84;5042828;28;1268;-79
2023/07/18 01:33:32;;;;;;;;;;;;;;;14.71;72.56;102021.75;5046662;28;1411;-79
2023/07/18 01:35:57;;;;;;;;;;;;;;;14.67;72.53;102017.72;5044158;28;1217;-80
2023/07/18 01:38:29;;;;;;;;;;;;;;;14.68;72.90;102016.81;5045305;28;1240;-80
2023/07/18 01:40:54;;;;;;;;;;;;;;;14.68;73.03;102029.84;5026325;28;1685;-80
2023/07/18 01:43:19;;;;;;;;;;;;;;;14.67;73.03;102022.94;5039811;28;1491;-80
2023/07/18 01:45:45;;;;;;;;;;;;;;;14.67;73.20;102011.69;5042225;28;1360;-79
2023/07/18 01:48:10;;;;;;;;;;;;;;;14.66;73.64;102005.63;5045801;28;1894;-79
2023/07/18 01:50:35;;;;;;;;;;;;;;;14.68;73.70;102008.97;5045901;28;1255;-79
2023/07/18 01:53:00;;;;;;;;;;;;;;;14.66;73.56;102005.63;5050869;28;1365;-79
2023/07/18 01:55:26;;;;;;;;;;;;;;;14.65;73.49;102003.16;5045965;28;1221;-79
2023/07/18 01:57:51;;;;;;;;;;;;;;;14.65;73.04;101998.75;5042224;28;1411;-79
2023/07/18 02:00:19;;;;;;;;;;;;;;;14.61;73.62;101999.94;5045021;28;1347;-80
2023/07/18 02:02:46;;;;;;;;;;;;;;;14.59;73.48;102001.84;5032005;28;1310;-79
2023/07/18 02:05:12;;;;;;;;;;;;;;;14.58;73.91;102002.81;5049668;28;1600;-79
2023/07/18 02:07:37;;;;;;;;;;;;;;;14.56;74.21;101999.47;5047981;28;1905;-79
2023/07/18 02:10:03;;;;;;;;;;;;;;;14.56;74.28;101999.47;5046456;28;1193;-79
2023/07/18 02:12:28;;;;;;;;;;;;;;;14.58;74.41;101987.97;5054676;28;1295;-80
2023/07/18 02:14:53;;;;;;;;;;;;;;;14.56;74.49;101981.19;5060080;28;1257;-79
2023/07/18 02:17:18;;;;;;;;;;;;;;;14.54;74.34;101986.56;5049985;28;1182;-79
2023/07/18 02:19:44;;;;;;;;;;;;;;;14.55;74.75;101980.38;5052071;28;1257;-79
2023/07/18 02:22:09;;;;;;;;;;;;;;;14.57;74.75;101977.66;5053133;28;1333;-79
2023/07/18 02:24:34;;;;;;;;;;;;;;;14.59;74.77;101978.34;5047700;28;1092;-79
2023/07/18 02:26:59;;;;;;;;;;;;;;;14.60;74.59;101975.63;5041031;28;1213;-79
2023/07/18 02:29:25;;;;;;;;;;;;;;;14.60;74.45;101974.78;5050440;28;1901;-79
2023/07/18 02:31:50;;;;;;;;;;;;;;;14.60;74.25;101975.63;5046950;28;1602;-79
2023/07/18 02:34:16;;;;;;;;;;;;;;;14.57;74.50;101977.66;5050192;28;1264;-79
2023/07/18 02:36:41;;;;;;;;;;;;;;;14.55;74.78;101982.16;5048575;28;1245;-79
2023/07/18 02:39:08;;;;;;;;;;;;;;;14.55;74.88;101982.16;5047897;28;1283;-79
2023/07/18 02:41:34;;;;;;;;;;;;;;;14.54;74.72;101976.09;5041610;28;1213;-80
2023/07/18 02:43:59;;;;;;;;;;;;;;;14.54;74.79;101981.34;5044566;28;1551;-81
2023/07/18 02:46:24;;;;;;;;;;;;;;;14.51;74.80;101980.75;5030940;28;1442;-79
2023/07/18 02:48:49;;;;;;;;;;;;;;;14.50;74.85;101976.47;5045627;28;1971;-79
2023/07/18 02:51:15;;;;;;;;;;;;;;;14.48;75.19;101975.78;5027417;28;1319;-79
2023/07/18 02:53:40;;;;;;;;;;;;;;;14.47;74.97;101974.13;5027311;28;1407;-80
2023/07/18 02:56:05;;;;;;;;;;;;;;;14.46;75.30;101972.44;5049203;28;1546;-80
2023/07/18 02:58:30;;;;;;;;;;;;;;;14.44;75.22;101975.16;5048424;28;1173;-79
2023/07/18 03:00:55;;;;;;;;;;;;;;;14.42;75.25;101971.84;5044165;28;1300;-80
2023/07/18 03:03:22;;;;;;;;;;;;;;;14.41;75.39;101969.38;5047606;28;1204;-80
2023/07/18 03:05:47;;;;;;;;;;;;;;;14.40;75.48;101972.94;5047135;28;1317;-79
2023/07/18 03:08:13;;;;;;;;;;;;;;;14.36;75.39;101967.09;5045887;28;1898;-79
2023/07/18 03:10:38;;;;;;;;;;;;;;;14.35;75.35;101971.50;5042173;28;1233;-80
2023/07/18 03:13:03;;;;;;;;;;;;;;;14.34;75.37;101975.06;5022139;28;1572;-81
2023/07/18 03:15:29;;;;;;;;;;;;;;;14.31;75.71;101975.28;5041481;28;1280;-79
2023/07/18 03:17:54;;;;;;;;;;;;;;;14.30;75.56;101988.47;5036968;28;1205;-79
2023/07/18 03:20:19;;;;;;;;;;;;;;;14.26;75.83;101982.66;5039578;28;954;-79
2023/07/18 03:22:45;;;;;;;;;;;;;;;14.23;75.63;101982.09;5043207;28;1358;-80
2023/07/18 03:25:11;;;;;;;;;;;;;;;14.22;75.75;101983.88;5048838;28;1295;-80
2023/07/18 03:27:36;;;;;;;;;;;;;;;14.22;75.87;101986.47;5030407;28;1897;-80
2023/07/18 03:30:01;;;;;;;;;;;;;;;14.17;75.92;101982.56;5047197;28;1473;-80
2023/07/18 03:32:26;;;;;;;;;;;;;;;14.17;75.98;101987.78;5045263;28;1192;-80
2023/07/18 03:34:52;;;;;;;;;;;;;;;14.16;76.04;101989.53;5035714;28;1343;-79
2023/07/18 03:37:17;;;;;;;;;;;;;;;14.13;75.85;101981.97;5046443;28;1197;-79
2023/07/18 03:39:42;;;;;;;;;;;;;;;14.11;76.14;101994.31;5044871;28;1373;-79
2023/07/18 03:42:08;;;;;;;;;;;;;;;14.09;76.13;101983.97;5036903;28;1423;-80
2023/07/18 03:44:33;;;;;;;;;;;;;;;14.09;76.21;101980.53;5028824;28;1562;-80
2023/07/18 03:46:58;;;;;;;;;;;;;;;14.09;76.30;101988.38;5051333;28;1120;-80
2023/07/18 03:49:23;;;;;;;;;;;;;;;14.06;76.11;101981.63;5047152;28;1894;-79
2023/07/18 03:51:49;;;;;;;;;;;;;;;14.06;76.32;101981.63;5042990;28;1316;-79
2023/07/18 03:54:14;;;;;;;;;;;;;;;14.05;76.08;101979.13;5047321;28;1523;-79
2023/07/18 03:56:39;;;;;;;;;;;;;;;14.00;76.31;101981.28;5038008;28;1476;-79
2023/07/18 03:59:05;;;;;;;;;;;;;;;13.99;76.38;101979.59;5043529;28;1192;-80
2023/07/18 04:01:30;;;;;;;;;;;;;;;13.99;76.53;101979.59;5041870;28;1384;-79
2023/07/18 04:03:55;;;;;;;;;;;;;;;13.99;76.46;101988.28;5024347;28;1301;-79
2023/07/18 04:06:21;;;;;;;;;;;;;;;13.98;76.50;101983.16;5049130;28;1339;-79
2023/07/18 04:08:46;;;;;;;;;;;;;;;13.92;76.68;101983.63;5045562;28;1951;-79
2023/07/18 04:11:11;;;;;;;;;;;;;;;13.85;76.71;101972.00;5047764;28;1588;-80
2023/07/18 04:13:37;;;;;;;;;;;;;;;13.80;77.03;101965.38;5048535;28;1268;-79
2023/07/18 04:16:03;;;;;;;;;;;;;;;13.80;77.26;101970.59;5048560;28;1273;-79
2023/07/18 04:18:29;;;;;;;;;;;;;;;13.81;76.95;101974.84;5044172;28;1159;-79
2023/07/18 04:21:03;;;;;;;;;;;;;;;13.79;77.56;101968.94;5053861;28;1373;-80
2023/07/18 04:23:29;;;;;;;;;;;;;;;13.76;77.24;101963.97;5042785;28;1028;-79
2023/07/18 04:25:56;;;;;;;;;;;;;;;13.74;77.66;101955.41;5024973;28;1322;-79
2023/07/18 04:28:21;;;;;;;;;;;;;;;13.68;77.85;101961.09;5044422;28;1967;-79
2023/07/18 04:30:46;;;;;;;;;;;;;;;13.59;78.04;101961.81;5022042;28;1478;-79
2023/07/18 04:33:12;;;;;;;;;;;;;;;13.56;78.35;101956.81;5049735;28;1264;-80
2023/07/18 04:35:38;;;;;;;;;;;;;;;13.58;78.21;101948.88;5048021;28;1491;-79
2023/07/18 04:38:03;;;;;;;;;;;;;;;13.62;78.38;101951.16;5042883;28;1688;-80
2023/07/18 04:40:28;;;;;;;;;;;;;;;13.67;78.39;101954.22;5046674;28;1264;-79
2023/07/18 04:42:53;;;;;;;;;;;;;;;13.69;78.24;101951.50;5047722;28;1254;-79
2023/07/18 04:45:18;;;;;;;;;;;;;;;13.74;78.20;101954.59;5041876;28;1033;-79
2023/07/18 04:47:46;;;;;;;;;;;;;;;13.75;78.12;101951.03;5044846;28;1898;-78
2023/07/18 04:50:12;;;;;;;;;;;;;;;13.76;77.72;101952.69;5041273;28;1175;-78
2023/07/18 04:52:37;;;;;;;;;;;;;;;13.78;78.02;101951.63;5029657;28;1246;-79
2023/07/18 04:55:02;;;;;;;;;;;;;;;13.80;78.11;101949.72;5047121;28;1264;-79
2023/07/18 04:57:28;;;;;;;;;;;;;;;13.84;77.88;101954.72;5042597;28;1277;-79
2023/07/18 04:59:53;;;;;;;;;;;;;;;13.86;78.09;101955.41;5040159;28;1326;-78
2023/07/18 05:02:19;;;;;;;;;;;;;;;13.90;78.15;101949.03;5043083;28;1280;-79
2023/07/18 05:04:44;;;;;;;;;;;;;;;13.93;77.88;101954.81;5041248;28;1398;-79
2023/07/18 05:07:09;;;;;;;;;;;;;;;13.95;78.16;101952.09;5042818;28;1333;-79
2023/07/18 05:09:34;;;;;;;;;;;;;;;13.96;78.10;101953.75;5046821;28;1901;-79
2023/07/18 05:12:00;;;;;;;;;;;;;;;13.99;77.83;101953.50;5046379;28;1225;-79
2023/07/18 05:14:25;;;;;;;;;;;;;;;14.03;77.70;101949.72;5030943;28;1394;-79
2023/07/18 05:16:50;;;;;;;;;;;;;;;14.03;77.96;101954.94;5045529;28;1235;-79
2023/07/18 05:19:15;;;;;;;;;;;;;;;14.04;77.69;101948.75;5030703;28;1286;-80
2023/07/18 05:21:41;;;;;;;;;;;;;;;14.06;77.77;101949.50;5040847;28;1500;-79
2023/07/18 05:24:06;;;;;;;;;;;;;;;14.03;77.71;101945.31;5043071;28;1186;-79
2023/07/18 05:26:31;;;;;;;;;;;;;;;14.07;77.68;101951.16;5039919;28;1082;-80
2023/07/18 05:28:56;;;;;;;;;;;;;;;14.08;77.60;101947.56;5045373;28;1969;-79
2023/07/18 05:31:21;;;;;;;;;;;;;;;14.10;77.53;101950.88;5045222;28;1373;-79
2023/07/18 05:33:47;;;;;;;;;;;;;;;14.12;77.67;101959.44;5043510;28;1173;-79
2023/07/18 05:36:12;;;;;;;;;;;;;;;14.16;77.71;101960.00;5045294;28;1692;-79
2023/07/18 05:38:38;;;;;;;;;;;;;;;14.17;77.58;101946.03;5045893;28;1209;-79
2023/07/18 05:41:03;;;;;;;;;;;;;;;14.22;77.63;101955.16;5047121;28;1105;-79
2023/07/18 05:43:29;;;;;;;;;;;;;;;14.25;77.73;101957.50;5045074;28;1410;-79
2023/07/18 05:45:54;;;;;;;;;;;;;;;14.30;77.46;101957.97;5049426;28;1153;-79
2023/07/18 05:48:19;;;;;;;;;;;;;;;14.34;77.57;101959.41;5036161;28;1918;-79
2023/07/18 05:50:44;;;;;;;;;;;;;;;14.39;77.25;101966.03;5049950;28;1250;-78
2023/07/18 05:53:09;;;;;;;;;;;;;;;14.42;77.45;101968.41;5051612;28;1305;-79
2023/07/18 05:55:34;;;;;;;;;;;;;;;14.47;77.10;101967.13;5046632;28;1499;-79
2023/07/18 05:58:09;;;;;;;;;;;;;;;14.51;77.26;101965.09;5050478;28;1088;-79
2023/07/18 06:00:35;;;;;;;;;;;;;;;14.57;77.07;101964.59;5046492;28;2243;-81
2023/07/18 06:03:00;;;;;;;;;;;;;;;14.63;77.10;101960.69;5050304;28;1201;-81
2023/07/18 06:05:26;;;;;;;;;;;;;;;14.66;76.92;101958.63;5046701;28;1217;-80
2023/07/18 06:07:51;;;;;;;;;;;;;;;14.74;77.02;101961.47;5046715;28;1897;-79
2023/07/18 06:10:16;;;;;;;;;;;;;;;14.79;76.76;101948.84;5050004;28;1561;-79
2023/07/18 06:12:41;;;;;;;;;;;;;;;14.83;77.10;101949.44;5049157;28;1255;-79
2023/07/18 06:15:07;;;;;;;;;;;;;;;14.91;76.78;101956.63;5048133;28;1204;-79
2023/07/18 06:17:35;;;;;;;;;;;;;;;15.00;77.04;101961.09;5046774;28;1284;-79
2023/07/18 06:20:00;;;;;;;;;;;;;;;15.06;76.74;101965.81;5047275;28;1177;-79
2023/07/18 06:22:26;;;;;;;;;;;;;;;15.13;76.42;101964.34;5047034;28;1005;-79
2023/07/18 06:24:51;;;;;;;;;;;;;;;15.19;75.99;101956.00;5047294;28;1313;-79
2023/07/18 06:27:16;;;;;;;;;;;;;;;15.21;76.46;101961.97;5054772;28;1399;-80
2023/07/18 06:29:41;;;;;;;;;;;;;;;15.30;76.28;101958.56;5044796;28;1939;-80
2023/07/18 06:32:08;;;;;;;;;;;;;;;15.38;76.30;101961.38;5026476;28;1241;-79
2023/07/18 06:34:40;;;;;;;;;;;;;;;15.48;76.35;101960.59;5048742;28;1296;-79
2023/07/18 06:37:08;;;;;;;;;;;;;;;15.53;76.04;101974.09;5025552;28;1241;-80
2023/07/18 06:39:33;;;;;;;;;;;;;;;15.59;75.92;101973.59;5025481;28;1304;-80
2023/07/18 06:41:59;;;;;;;;;;;;;;;15.58;75.92;101977.16;5042911;28;1412;-78
2023/07/18 06:44:24;;;;;;;;;;;;;;;15.64;76.14;101971.44;5029841;28;1125;-79
2023/07/18 06:46:50;;;;;;;;;;;;;;;15.71;75.92;101962.09;5036496;28;2235;-79
2023/07/18 06:49:18;;;;;;;;;;;;;;;15.79;76.06;101959.69;5043744;28;1949;-79
2023/07/18 06:51:43;;;;;;;;;;;;;;;15.88;75.68;101964.09;5025565;28;1280;-80
2023/07/18 06:54:08;;;;;;;;;;;;;;;15.97;75.48;101962.50;5048558;28;1104;-79
2023/07/18 06:56:33;;;;;;;;;;;;;;;16.05;75.23;101964.44;5047535;28;1206;-80
2023/07/18 06:58:58;;;;;;;;;;;;;;;16.12;75.35;101961.19;5032521;28;1363;-79
2023/07/18 07:01:23;;;;;;;;;;;;;;;16.17;75.05;101968.59;5048123;28;1396;-80
2023/07/18 07:03:49;;;;;;;;;;;;;;;16.23;75.01;101968.09;5045993;28;1070;-80
2023/07/18 07:06:16;;;;;;;;;;;;;;;16.32;74.71;101956.81;5032888;28;1377;-79
2023/07/18 07:08:42;;;;;;;;;;;;;;;16.42;74.31;101957.66;5046558;28;1894;-79
2023/07/18 07:11:07;;;;;;;;;;;;;;;16.50;74.38;101962.22;5043663;28;1299;-79
2023/07/18 07:13:34;;;;;;;;;;;;;;;16.53;74.55;101953.28;5043216;28;1126;-80
2023/07/18 07:16:00;;;;;;;;;;;;;;;16.65;74.58;101957.41;5046097;28;1299;-80
2023/07/18 07:18:26;;;;;;;;;;;;;;;16.77;73.92;101951.09;5049562;28;1334;-80
2023/07/18 07:20:51;;;;;;;;;;;;;;;16.83;74.02;101953.16;5041256;28;1211;-80
2023/07/18 07:23:16;;;;;;;;;;;;;;;16.91;73.36;101953.28;5047214;28;1278;-80
2023/07/18 07:25:42;;;;;;;;;;;;;;;16.95;73.25;101954.66;5047533;28;1197;-80
2023/07/18 07:28:08;;;;;;;;;;;;;;;17.04;73.10;101946.94;5047003;28;1941;-80
2023/07/18 07:30:33;;;;;;;;;;;;;;;17.11;73.09;101948.03;5045166;28;1207;-79
2023/07/18 07:32:58;;;;;;;;;;;;;;;17.18;72.87;101949.13;5044582;28;1334;-80
2023/07/18 07:35:23;;;;;;;;;;;;;;;17.28;72.72;101952.56;5041229;28;1214;-79
2023/07/18 07:37:50;;;;;;;;;;;;;;;17.35;72.86;101939.72;5041585;28;1281;-80
2023/07/18 07:40:15;;;;;;;;;;;;;;;17.46;72.45;101935.13;5039907;28;1204;-79
2023/07/18 07:42:42;;;;;;;;;;;;;;;17.59;71.84;101944.47;5022269;28;1279;-80
2023/07/18 07:45:07;;;;;;;;;;;;;;;17.66;71.50;101942.91;5035476;28;1254;-80
2023/07/18 07:47:33;;;;;;;;;;;;;;;17.75;71.41;101942.09;5042379;28;1133;-79
2023/07/18 07:49:58;;;;;;;;;;;;;;;17.85;71.31;101942.88;5032783;28;1906;-79
2023/07/18 07:52:23;;;;;;;;;;;;;;;17.93;71.13;101935.09;5046784;28;1304;-80
2023/07/18 07:54:48;;;;;;;;;;;;;;;18.05;70.81;101939.16;5038078;28;1305;-79
2023/07/18 07:57:14;;;;;;;;;;;;;;;18.14;70.44;101936.63;5039093;28;1064;-79
2023/07/18 07:59:39;;;;;;;;;;;;;;;18.23;70.26;101941.00;5043936;28;2114;-79
2023/07/18 08:02:05;;;;;;;;;;;;;;;18.36;69.74;101930.97;5040513;28;1527;-79
2023/07/18 08:04:30;;;;;;;;;;;;;;;18.48;69.65;101929.78;5045689;28;1213;-80
2023/07/18 08:06:55;;;;;;;;;;;;;;;18.54;68.94;101934.44;5045529;28;1225;-80
2023/07/18 08:09:21;;;;;;;;;;;;;;;18.63;68.62;101926.59;5029427;28;1894;-80
2023/07/18 08:11:49;;;;;;;;;;;;;;;18.69;67.73;101926.03;5044091;28;1336;-80
2023/07/18 08:14:14;;;;;;;;;;;;;;;18.75;67.75;101925.41;5046063;28;1193;-79
2023/07/18 08:16:40;;;;;;;;;;;;;;;18.82;67.88;101921.22;5043293;28;1143;-79
2023/07/18 08:19:05;;;;;;;;;;;;;;;18.91;67.54;101920.28;5040887;28;1231;-79
2023/07/18 08:21:30;;;;;;;;;;;;;;;18.97;66.69;101932.00;5043392;28;1251;-80
2023/07/18 08:23:55;;;;;;;;;;;;;;;19.08;66.48;101937.84;5044085;28;1305;-79
2023/07/18 08:26:20;;;;;;;;;;;;;;;19.10;65.52;101925.38;5031798;28;1217;-80
2023/07/18 08:28:46;;;;;;;;;;;;;;;19.21;63.33;101926.94;5046173;28;1897;-80
2023/07/18 08:31:11;;;;;;;;;;;;;;;19.27;64.12;101920.22;5043738;28;984;-80
2023/07/18 08:33:36;;;;;;;;;;;;;;;19.36;63.29;101924.53;5042757;28;1195;-80
2023/07/18 08:36:01;;;;;;;;;;;;;;;19.48;63.06;101925.91;5043227;28;1333;-79
2023/07/18 08:38:27;;;;;;;;;;;;;;;19.58;62.79;101916.13;5043775;28;1094;-79
2023/07/18 08:40:52;;;;;;;;;;;;;;;19.68;63.31;101915.19;5046264;28;1512;-79
2023/07/18 08:43:18;;;;;;;;;;;;;;;19.77;63.10;101914.22;5044113;28;1228;-80
2023/07/18 08:45:44;;;;;;;;;;;;;;;19.86;62.69;101910.66;5044357;28;1191;-79
2023/07/18 08:48:09;;;;;;;;;;;;;;;19.96;60.85;101905.28;5042424;28;1980;-80
2023/07/18 08:50:35;;;;;;;;;;;;;;;20.05;61.83;101909.56;5046827;28;1101;-80
2023/07/18 08:53:01;;;;;;;;;;;;;;;20.11;61.20;101907.09;5045491;28;1330;-81
2023/07/18 08:55:29;;;;;;;;;;;;;;;20.24;60.79;101901.34;5029589;28;1237;-80
2023/07/18 08:57:55;;;;;;;;;;;;;;;20.37;60.13;101898.25;5044165;28;1256;-81
2023/07/18 09:00:20;;;;;;;;;;;;;;;20.41;59.55;101900.41;5041646;28;1232;-82
2023/07/18 09:02:48;;;;;;;;;;;;;;;20.53;59.65;101900.09;5045378;28;1711;-82
2023/07/18 09:05:31;;;;;;;;;;;;;;;20.66;59.88;101892.53;5044747;28;1181;-80
2023/07/18 09:07:57;;;;;;;;;;;;;;;20.74;59.01;101883.78;5045170;28;1959;-81
2023/07/18 09:10:23;;;;;;;;;;;;;;;20.85;57.27;101897.47;5042453;28;1386;-81
2023/07/18 09:12:48;;;;;;;;;;;;;;;20.93;57.06;101892.19;5044226;28;1887;-80
2023/07/18 09:15:17;;;;;;;;;;;;;;;20.97;56.60;101884.75;5029480;28;1541;-81
2023/07/18 09:17:47;;;;;;;;;;;;;;;21.09;57.43;101886.03;5028019;28;1336;-79
2023/07/18 09:20:16;;;;;;;;;;;;;;;21.19;55.20;101884.03;5037195;28;1190;-81
2023/07/18 09:22:41;;;;;;;;;;;;;;;21.30;55.87;101884.72;5045749;28;1234;-80
2023/07/18 09:25:06;;;;;;;;;;;;;;;21.39;56.91;101886.31;5027474;28;1260;-80
2023/07/18 09:27:35;;;;;;;;;;;;;;;21.41;56.80;101876.44;5045668;28;1178;-80
2023/07/18 09:30:00;;;;;;;;;;;;;;;21.50;56.51;101880.66;5046928;28;1898;-80
2023/07/18 09:32:25;;;;;;;;;;;;;;;21.52;56.37;101889.25;5045364;28;1313;-80
2023/07/18 09:34:55;;;;;;;;;;;;;;;21.55;55.94;101883.63;5044672;28;1326;-81
2023/07/18 09:37:20;;;;;;;;;;;;;;;21.68;55.39;101883.91;5043630;28;1565;-79
2023/07/18 09:39:46;;;;;;;;;;;;;;;21.73;55.52;101881.56;5049794;28;1292;-80
2023/07/18 09:42:12;;;;;;;;;;;;;;;21.83;55.00;101881.34;5049315;28;1264;-81
2023/07/18 09:44:39;;;;;;;;;;;;;;;21.88;52.71;101872.91;5032775;28;1243;-81
2023/07/18 09:47:05;;;;;;;;;;;;;;;22.01;54.09;101870.50;5050762;28;1491;-80
2023/07/18 09:49:31;;;;;;;;;;;;;;;22.06;53.34;101868.16;5052954;28;1898;-80
2023/07/18 09:52:01;;;;;;;;;;;;;;;22.10;52.43;101864.22;5041455;28;1092;-80
2023/07/18 09:54:27;;;;;;;;;;;;;;;22.16;51.69;101871.44;5046405;28;1197;-80
2023/07/18 09:56:53;;;;;;;;;;;;;;;22.25;52.03;101867.75;5048269;28;1351;-80
2023/07/18 09:59:20;;;;;;;;;;;;;;;22.34;52.34;101873.78;5048078;28;1184;-80
2023/07/18 10:01:46;;;;;;;;;;;;;;;22.41;52.46;101865.94;5047105;28;1137;-80
2023/07/18 10:04:12;;;;;;;;;;;;;;;22.50;52.08;101867.53;5049345;28;1310;-79
2023/07/18 10:06:38;;;;;;;;;;;;;;;22.50;51.56;101857.78;5044932;28;1267;-80
2023/07/18 10:09:03;;;;;;;;;;;;;;;22.54;51.58;101868.84;5047448;28;1894;-80
2023/07/18 10:11:28;;;;;;;;;;;;;;;22.61;50.29;101859.19;5043123;28;1145;-80
2023/07/18 10:14:06;;;;;;;;;;;;;;;22.67;49.61;101853.19;5048985;28;1185;-80
2023/07/18 10:16:34;;;;;;;;;;;;;;;22.85;49.91;101854.66;5044157;28;1275;-79
2023/07/18 10:19:14;;;;;;;;;;;;;;;22.87;49.25;101852.63;5048360;28;1230;-79
2023/07/18 10:21:43;;;;;;;;;;;;;;;22.85;49.45;101849.38;5044323;28;1269;-78
2023/07/18 10:24:24;;;;;;;;;;;;;;;22.93;49.28;101844.00;5046621;28;1157;-79
2023/07/18 10:26:54;;;;;;;;;;;;;;;23.08;47.36;101842.19;5046439;28;1180;-79
2023/07/18 10:29:19;;;;;;;;;;;;;;;22.93;48.24;101836.06;5046488;28;1894;-79
2023/07/18 10:31:45;;;;;;;;;;;;;;;23.02;48.13;101835.81;5024915;28;1370;-79
2023/07/18 10:34:13;;;;;;;;;;;;;;;23.08;48.31;101834.25;5046767;28;1254;-79
2023/07/18 10:36:39;;;;;;;;;;;;;;;23.18;48.39;101832.16;5044041;28;1253;-79
2023/07/18 10:39:09;;;;;;;;;;;;;;;23.19;47.71;101817.91;5045809;28;1096;-79
2023/07/18 10:41:34;;;;;;;;;;;;;;;23.23;46.40;101821.84;5040864;28;1093;-79
2023/07/18 10:43:59;;;;;;;;;;;;;;;23.35;44.70;101819.56;5045701;28;1506;-80
2023/07/18 10:46:34;;;;;;;;;;;;;;;23.24;42.15;101812.09;5048945;28;1150;-80
2023/07/18 10:48:59;;;;;;;;;;;;;;;23.01;44.77;101806.91;5025871;28;1902;-80
2023/07/18 10:51:25;;;;;;;;;;;;;;;23.12;41.50;101814.38;5025278;28;1346;-78
2023/07/18 10:53:53;;;;;;;;;;;;;;;23.02;42.89;101804.06;5044646;28;1234;-79
2023/07/18 10:56:19;;;;;;;;;;;;;;;22.99;43.73;101803.59;5049325;28;1391;-79
2023/07/18 10:58:45;;;;;;;;;;;;;;;23.10;41.76;101800.47;5048819;28;1304;-80
2023/07/18 11:01:10;;;;;;;;;;;;;;;23.17;43.27;101806.72;5045016;28;1387;-79
2023/07/18 11:03:37;;;;;;;;;;;;;;;23.25;43.46;101798.66;5047296;28;1208;-80
2023/07/18 11:06:07;;;;;;;;;;;;;;;23.27;44.02;101791.34;5045972;28;1239;-79
2023/07/18 11:08:32;;;;;;;;;;;;;;;23.31;43.32;101792.63;5047486;28;1905;-80
2023/07/18 11:11:05;;;;;;;;;;;;;;;23.50;42.66;101785.06;5060123;28;1454;-80
2023/07/18 11:13:34;;;;;;;;;;;;;;;23.74;43.00;101784.78;5047990;28;1626;-79
2023/07/18 11:16:06;;;;;;;;;;;;;;;23.93;43.53;101788.63;5032872;28;1519;-80
2023/07/18 11:18:33;;;;;;;;;;;;;;;24.04;42.37;101782.00;5046379;28;1256;-79
2023/07/18 11:21:01;;;;;;;;;;;;;;;23.92;42.39;101788.81;5046636;28;1581;-79
2023/07/18 11:23:26;;;;;;;;;;;;;;;23.91;43.35;101787.16;5042632;28;1208;-80
2023/07/18 11:25:51;;;;;;;;;;;;;;;24.10;42.79;101792.66;5045029;28;1217;-79
2023/07/18 11:28:16;;;;;;;;;;;;;;;24.16;42.57;101798.19;5043463;28;1902;-80
2023/07/18 11:30:43;;;;;;;;;;;;;;;24.17;42.10;101803.31;5049547;28;1578;-79
2023/07/18 11:33:12;;;;;;;;;;;;;;;24.22;42.30;101795.59;5046496;28;1136;-79
2023/07/18 11:35:37;;;;;;;;;;;;;;;24.33;42.78;101781.81;5040524;28;1234;-79
2023/07/18 11:38:18;;;;;;;;;;;;;;;24.51;42.74;101783.19;5043433;28;1304;-79
2023/07/18 11:40:43;;;;;;;;;;;;;;;24.60;42.94;101776.72;5045423;28;1134;-79
2023/07/18 11:43:18;;;;;;;;;;;;;;;24.58;42.13;101763.66;5047870;28;1143;-79
2023/07/18 11:45:43;;;;;;;;;;;;;;;24.60;40.54;101766.09;5042065;28;1253;-78
2023/07/18 11:48:08;;;;;;;;;;;;;;;24.33;40.47;101781.81;5046860;28;2168;-79
2023/07/18 11:50:34;;;;;;;;;;;;;;;24.28;41.61;101773.63;5046217;28;1286;-79
2023/07/18 11:52:59;;;;;;;;;;;;;;;24.18;41.95;101767.00;5047245;28;1272;-79
2023/07/18 11:55:24;;;;;;;;;;;;;;;24.28;41.92;101751.59;5029994;28;1287;-79
2023/07/18 11:57:49;;;;;;;;;;;;;;;24.50;41.65;101760.34;5046656;28;1093;-79
2023/07/18 12:00:16;;;;;;;;;;;;;;;24.51;41.62;101761.97;5043909;28;1214;-80
2023/07/18 12:02:41;;;;;;;;;;;;;;;24.48;41.43;101762.34;5047640;28;1335;-79
2023/07/18 12:05:07;;;;;;;;;;;;;;;24.45;40.13;101760.91;5026407;28;1475;-78
2023/07/18 12:07:32;;;;;;;;;;;;;;;24.33;41.48;101744.69;5048200;28;1126;-79
2023/07/18 12:09:58;;;;;;;;;;;;;;;24.21;41.85;101740.94;5048043;28;1917;-78
2023/07/18 12:12:23;;;;;;;;;;;;;;;24.01;42.15;101737.31;5046990;28;1285;-78
2023/07/18 12:14:49;;;;;;;;;;;;;;;24.18;42.34;101746.63;5046844;28;1079;-78
2023/07/18 12:17:14;;;;;;;;;;;;;;;24.24;41.94;101743.19;5042916;28;1261;-79
2023/07/18 12:19:40;;;;;;;;;;;;;;;24.25;41.22;101747.47;5044770;28;1292;-79
2023/07/18 12:22:05;;;;;;;;;;;;;;;24.17;40.53;101742.34;5044642;28;1475;-79
2023/07/18 12:24:30;;;;;;;;;;;;;;;24.17;41.98;101744.97;5043085;28;1707;-79
2023/07/18 12:26:55;;;;;;;;;;;;;;;24.26;41.43;101743.03;5047011;28;1331;-78
2023/07/18 12:29:22;;;;;;;;;;;;;;;24.15;41.61;101759.47;5045844;28;1981;-79
2023/07/18 12:31:50;;;;;;;;;;;;;;;24.26;42.00;101759.75;5041715;28;1249;-79
2023/07/18 12:34:16;;;;;;;;;;;;;;;24.45;41.48;101752.97;5041834;28;1327;-78
2023/07/18 12:36:41;;;;;;;;;;;;;;;24.47;41.85;101755.41;5043901;28;1122;-79
2023/07/18 12:39:06;;;;;;;;;;;;;;;24.69;41.53;101762.28;5049940;28;1148;-79
2023/07/18 12:41:31;;;;;;;;;;;;;;;24.80;40.26;101748.47;5043114;28;1261;-78